sim
Sign-in with your pilot id or email,
or register
Callsign
Passwort

Schedule Details

Flight Number: DLH2191
Departure: Berlin Tegel Airport (EDDT) at 14:00
Arrival: Munich Airport (EDDM) at 15:10
Route: Lufthansa Passenger Schedule. Enter filed route here before submitting Pirep.

Weather Information
Getting current METAR information for EDDT 190550Z 07003KT 030V120 CAVOK 09/04 Q1025 NOSIG
Getting current METAR information for EDDM 190550Z VRB01KT CAVOK 05/04 Q1020 NOSIG

Schedule Frequency

Route Map